Time;durP1;ratioP1;P1;durP2;ratioP2;P2;SDS_P1;SDS_P2;PMS_P1;PMS_P2;Temp;Humidity;BMP_temperature;BMP_pressure;BME280_temperature;BME280_humidity;BME280_pressure;Samples;Min_cycle;Max_cycle;Signal;HPM_P1;HPM_P2
2023/09/22 00:04:51;;;;;;;;;;;;;;;18.28;100.00;94535.41;10527867;28;1888;-72
2023/09/22 00:09:55;;;;;;;;;;;;;;;18.46;100.00;94522.22;10529133;28;1977;-67
2023/09/22 00:14:57;;;;;;;;;;;;;;;18.22;100.00;94517.78;10525188;28;1879;-68
2023/09/22 00:20:00;;;;;;;;;;;;;;;18.02;100.00;94527.00;10521161;28;2944;-66
2023/09/22 00:25:02;;;;;;;;;;;;;;;17.92;100.00;94528.28;10521165;28;1871;-67
2023/09/22 00:30:05;;;;;;;;;;;;;;;17.95;100.00;94515.94;10525928;28;1975;-65
2023/09/22 00:35:09;;;;;;;;;;;;;;;18.01;100.00;94511.81;10528620;28;1889;-67
2023/09/22 00:40:12;;;;;;;;;;;;;;;17.85;100.00;94500.16;10520463;28;1905;-70
2023/09/22 00:45:17;;;;;;;;;;;;;;;17.87;100.00;94497.84;10513695;28;2150;-65
2023/09/22 00:50:19;;;;;;;;;;;;;;;17.73;100.00;94493.66;10519867;28;1922;-64
2023/09/22 00:55:22;;;;;;;;;;;;;;;17.65;100.00;94494.59;10527267;28;1908;-66
2023/09/22 01:00:27;;;;;;;;;;;;;;;17.81;100.00;94500.88;10523032;28;2022;-65
2023/09/22 01:05:29;;;;;;;;;;;;;;;18.04;100.00;94501.03;10519545;28;2940;-65
2023/09/22 01:10:32;;;;;;;;;;;;;;;17.87;100.00;94506.00;10527031;28;1921;-65
2023/09/22 01:15:34;;;;;;;;;;;;;;;17.68;100.00;94521.03;10503605;28;2032;-65
2023/09/22 01:20:37;;;;;;;;;;;;;;;17.70;100.00;94502.47;10521553;28;1978;-67
2023/09/22 01:25:40;;;;;;;;;;;;;;;17.61;100.00;94501.06;10521394;28;1915;-66
2023/09/22 01:30:42;;;;;;;;;;;;;;;17.51;100.00;94488.78;10525648;28;1984;-68
2023/09/22 01:35:45;;;;;;;;;;;;;;;17.55;100.00;94484.22;10517753;28;1914;-66
2023/09/22 01:40:47;;;;;;;;;;;;;;;17.63;100.00;94496.88;10516343;28;4631;-64
2023/09/22 01:45:50;;;;;;;;;;;;;;;17.82;100.00;94515.25;10524799;28;1959;-64
2023/09/22 01:50:52;;;;;;;;;;;;;;;17.96;100.00;94514.81;10521152;28;2887;-64
2023/09/22 01:55:55;;;;;;;;;;;;;;;18.12;100.00;94507.41;10521236;28;1969;-65
2023/09/22 02:00:59;;;;;;;;;;;;;;;18.04;100.00;94492.88;10519551;28;1906;-64
2023/09/22 02:06:04;;;;;;;;;;;;;;;17.92;100.00;94484.78;10525829;28;1933;-67
2023/09/22 02:11:06;;;;;;;;;;;;;;;17.90;100.00;94495.25;10522326;28;2147;-64
2023/09/22 02:16:09;;;;;;;;;;;;;;;17.78;100.00;94504.25;10524500;28;2024;-74
2023/09/22 02:21:13;;;;;;;;;;;;;;;17.55;100.00;94506.75;10518156;28;1978;-75
2023/09/22 02:26:15;;;;;;;;;;;;;;;17.54;100.00;94518.75;10522388;28;1898;-73
2023/09/22 02:31:17;;;;;;;;;;;;;;;17.28;100.00;94521.16;10527227;28;1986;-73
2023/09/22 02:36:20;;;;;;;;;;;;;;;17.29;100.00;94520.78;10517640;28;2572;-74
2023/09/22 02:41:22;;;;;;;;;;;;;;;17.31;100.00;94516.97;10519836;28;2226;-74
2023/09/22 02:46:24;;;;;;;;;;;;;;;16.98;100.00;94521.47;10520666;28;1998;-74
2023/09/22 02:51:27;;;;;;;;;;;;;;;16.82;100.00;94525.28;10521699;28;1984;-76
2023/09/22 02:56:32;;;;;;;;;;;;;;;16.78;100.00;94530.59;10514863;28;1946;-74
2023/09/22 03:01:36;;;;;;;;;;;;;;;16.62;100.00;94541.34;10517794;28;1965;-72
2023/09/22 03:06:39;;;;;;;;;;;;;;;16.61;100.00;94544.41;10517472;28;1898;-73
2023/09/22 03:11:41;;;;;;;;;;;;;;;16.33;100.00;94557.84;10521188;28;1991;-75
2023/09/22 03:16:43;;;;;;;;;;;;;;;16.18;100.00;94548.47;10518366;28;1954;-73
2023/09/22 03:21:46;;;;;;;;;;;;;;;15.97;100.00;94537.75;10515902;28;2511;-73
2023/09/22 03:26:48;;;;;;;;;;;;;;;15.82;100.00;94539.16;10520411;28;1993;-73
2023/09/22 03:31:51;;;;;;;;;;;;;;;15.57;100.00;94546.44;10522702;28;1995;-77
2023/09/22 03:36:53;;;;;;;;;;;;;;;15.49;100.00;94566.28;10515926;28;2019;-74
2023/09/22 03:41:56;;;;;;;;;;;;;;;15.33;100.00;94563.41;10515647;28;4654;-74
2023/09/22 03:46:58;;;;;;;;;;;;;;;15.37;100.00;94569.72;10515752;28;1919;-74
2023/09/22 03:52:00;;;;;;;;;;;;;;;15.29;100.00;94588.75;10517736;28;2238;-75
2023/09/22 03:57:06;;;;;;;;;;;;;;;15.27;100.00;94601.81;10518657;28;1883;-74
2023/09/22 04:02:08;;;;;;;;;;;;;;;15.25;100.00;94610.28;10514570;28;1909;-74
2023/09/22 04:07:11;;;;;;;;;;;;;;;15.10;100.00;94629.84;10512411;28;2824;-74
2023/09/22 04:12:13;;;;;;;;;;;;;;;14.63;100.00;94621.06;10525902;28;1984;-73
2023/09/22 04:17:16;;;;;;;;;;;;;;;14.47;100.00;94623.53;10522753;28;1945;-73
2023/09/22 04:22:18;;;;;;;;;;;;;;;14.46;100.00;94638.97;10527867;28;1947;-73
2023/09/22 04:27:21;;;;;;;;;;;;;;;14.52;100.00;94653.88;10525648;28;2099;-72
2023/09/22 04:32:23;;;;;;;;;;;;;;;14.40;100.00;94653.75;10512713;28;2025;-73
2023/09/22 04:37:26;;;;;;;;;;;;;;;14.44;100.00;94667.41;10526029;28;2012;-73
2023/09/22 04:42:29;;;;;;;;;;;;;;;14.52;100.00;94670.13;10526215;28;4639;-72
2023/09/22 04:47:31;;;;;;;;;;;;;;;14.51;100.00;94670.44;10529801;28;2337;-73
2023/09/22 04:52:34;;;;;;;;;;;;;;;14.45;100.00;94675.22;10523138;28;2607;-73
2023/09/22 04:57:36;;;;;;;;;;;;;;;14.66;100.00;94674.50;10528697;28;2250;-73
2023/09/22 05:02:39;;;;;;;;;;;;;;;14.53;100.00;94681.72;10529943;28;1923;-72
2023/09/22 05:07:41;;;;;;;;;;;;;;;14.39;100.00;94684.63;10524718;28;1911;-72
2023/09/22 05:12:44;;;;;;;;;;;;;;;14.42;100.00;94710.19;10519014;28;2177;-73
2023/09/22 05:17:46;;;;;;;;;;;;;;;14.59;100.00;94715.56;10526292;28;1968;-72
2023/09/22 05:22:49;;;;;;;;;;;;;;;14.42;100.00;94735.31;10523830;28;1953;-76
2023/09/22 05:27:51;;;;;;;;;;;;;;;14.39;100.00;94727.06;10519961;28;1957;-74
2023/09/22 05:32:54;;;;;;;;;;;;;;;14.42;100.00;94729.91;10524512;28;2358;-75
2023/09/22 05:37:57;;;;;;;;;;;;;;;14.51;100.00;94743.47;10524687;28;2664;-72
2023/09/22 05:43:00;;;;;;;;;;;;;;;14.71;100.00;94747.34;10522304;28;4651;-75
2023/09/22 05:48:02;;;;;;;;;;;;;;;14.57;100.00;94753.78;10526716;28;1883;-72
2023/09/22 05:53:05;;;;;;;;;;;;;;;14.63;100.00;94751.66;10523879;28;2026;-72
2023/09/22 05:58:08;;;;;;;;;;;;;;;14.64;100.00;94758.69;10506950;28;2008;-72
2023/09/22 06:03:12;;;;;;;;;;;;;;;14.65;100.00;94770.28;10526684;28;1951;-72
2023/09/22 06:08:14;;;;;;;;;;;;;;;14.36;100.00;94769.06;10520470;28;1957;-72
2023/09/22 06:13:17;;;;;;;;;;;;;;;14.38;100.00;94764.13;10521687;28;1884;-72
2023/09/22 06:18:19;;;;;;;;;;;;;;;14.19;100.00;94774.50;10520834;28;1839;-73
2023/09/22 06:23:22;;;;;;;;;;;;;;;14.25;100.00;94778.59;10520946;28;2582;-73
2023/09/22 06:28:25;;;;;;;;;;;;;;;14.04;100.00;94784.69;10522618;28;1922;-73
2023/09/22 06:33:28;;;;;;;;;;;;;;;14.17;100.00;94785.63;10518753;28;1849;-72
2023/09/22 06:38:32;;;;;;;;;;;;;;;14.20;100.00;94782.28;10520412;28;1944;-71
2023/09/22 06:43:36;;;;;;;;;;;;;;;14.05;100.00;94790.88;10514430;28;4615;-75
2023/09/22 06:48:57;;;;;;;;;;;;;;;13.99;100.00;94786.75;10519059;28;1910;-74
2023/09/22 06:54:00;;;;;;;;;;;;;;;13.81;100.00;94796.00;10523565;28;1877;-71
2023/09/22 06:59:04;;;;;;;;;;;;;;;13.83;100.00;94794.53;10518057;28;1895;-71
2023/09/22 07:04:09;;;;;;;;;;;;;;;13.96;100.00;94790.88;10522644;28;1942;-72
2023/09/22 07:09:13;;;;;;;;;;;;;;;13.96;100.00;94804.41;10517330;28;2696;-72
2023/09/22 07:14:16;;;;;;;;;;;;;;;13.91;100.00;94815.34;10517746;28;1838;-70
2023/09/22 07:19:19;;;;;;;;;;;;;;;13.93;100.00;94815.03;10515765;28;1857;-72
2023/09/22 07:24:21;;;;;;;;;;;;;;;13.96;100.00;94803.59;10517138;28;1873;-72
2023/09/22 07:29:24;;;;;;;;;;;;;;;13.88;100.00;94813.31;10498904;28;1910;-73
2023/09/22 07:34:26;;;;;;;;;;;;;;;14.00;100.00;94813.47;10517947;28;1922;-70
2023/09/22 07:39:29;;;;;;;;;;;;;;;14.44;100.00;94806.13;10518916;28;1849;-71
2023/09/22 07:44:31;;;;;;;;;;;;;;;14.49;100.00;94822.16;10521449;28;4587;-78
2023/09/22 07:49:33;;;;;;;;;;;;;;;14.58;100.00;94816.75;10531600;28;1920;-71
2023/09/22 07:54:36;;;;;;;;;;;;;;;14.47;100.00;94829.03;10528262;28;2392;-72
2023/09/22 07:59:38;;;;;;;;;;;;;;;14.44;100.00;94843.97;10526542;28;1969;-71
2023/09/22 08:04:41;;;;;;;;;;;;;;;14.42;100.00;94838.06;10524074;28;1907;-70
2023/09/22 08:09:43;;;;;;;;;;;;;;;14.60;100.00;94828.84;10525025;28;1997;-69
2023/09/22 08:14:46;;;;;;;;;;;;;;;14.56;100.00;94821.69;10527173;28;1892;-70
2023/09/22 08:19:59;;;;;;;;;;;;;;;14.52;100.00;94826.16;10520835;28;2034;-70
2023/09/22 08:25:02;;;;;;;;;;;;;;;14.63;100.00;94821.19;10525416;28;1868;-71
2023/09/22 08:30:09;;;;;;;;;;;;;;;14.62;100.00;94823.09;10522915;28;1934;-70
2023/09/22 08:35:12;;;;;;;;;;;;;;;14.62;100.00;94833.13;10523372;28;1946;-70
2023/09/22 08:40:15;;;;;;;;;;;;;;;14.67;100.00;94832.97;10520613;28;4678;-69
2023/09/22 08:45:18;;;;;;;;;;;;;;;14.62;100.00;94846.66;10523631;28;1863;-70
2023/09/22 08:50:20;;;;;;;;;;;;;;;14.56;100.00;94851.44;10519456;28;1955;-71
2023/09/22 08:55:23;;;;;;;;;;;;;;;14.57;100.00;94859.25;10518409;28;1885;-71
2023/09/22 09:00:26;;;;;;;;;;;;;;;14.51;100.00;94868.63;10507529;28;1900;-71
2023/09/22 09:05:30;;;;;;;;;;;;;;;14.74;100.00;94873.84;10521279;28;1892;-69
2023/09/22 09:10:32;;;;;;;;;;;;;;;14.34;100.00;94880.22;10524376;28;2032;-75
2023/09/22 09:15:34;;;;;;;;;;;;;;;14.13;100.00;94873.88;10523136;28;1892;-71
2023/09/22 09:20:37;;;;;;;;;;;;;;;14.14;100.00;94880.88;10524020;28;1901;-71
2023/09/22 09:25:40;;;;;;;;;;;;;;;14.05;100.00;94878.13;10521415;28;2019;-72
2023/09/22 09:30:43;;;;;;;;;;;;;;;14.30;100.00;94878.47;10521789;28;1965;-71
2023/09/22 09:35:45;;;;;;;;;;;;;;;14.14;100.00;94867.34;10518037;28;1964;-70
2023/09/22 09:40:52;;;;;;;;;;;;;;;14.20;100.00;94868.00;10523872;28;4679;-71
2023/09/22 09:45:57;;;;;;;;;;;;;;;14.18;100.00;94867.50;10523950;28;1855;-74
2023/09/22 09:51:00;;;;;;;;;;;;;;;14.27;100.00;94865.59;10521123;28;1986;-72
2023/09/22 09:56:03;;;;;;;;;;;;;;;14.18;100.00;94876.38;10521866;28;1940;-72
2023/09/22 10:01:06;;;;;;;;;;;;;;;13.82;100.00;94882.09;10519759;28;2263;-72
2023/09/22 10:06:09;;;;;;;;;;;;;;;13.91;100.00;94893.69;10519626;28;1883;-72
2023/09/22 10:11:11;;;;;;;;;;;;;;;13.85;100.00;94900.38;10520201;28;1980;-72
2023/09/22 10:16:13;;;;;;;;;;;;;;;13.88;100.00;94904.38;10521466;28;1848;-70
2023/09/22 10:21:16;;;;;;;;;;;;;;;14.05;100.00;94909.78;10521116;28;1898;-68
2023/09/22 10:26:19;;;;;;;;;;;;;;;13.77;100.00;94895.75;10516280;28;2565;-70
2023/09/22 10:31:22;;;;;;;;;;;;;;;13.96;100.00;94895.47;10519786;28;1986;-73
2023/09/22 10:36:25;;;;;;;;;;;;;;;14.15;100.00;94897.88;10520333;28;1836;-72
2023/09/22 10:41:27;;;;;;;;;;;;;;;14.50;100.00;94894.06;10504666;28;2216;-76
2023/09/22 10:46:30;;;;;;;;;;;;;;;14.19;100.00;94898.84;10516065;28;1808;-73
2023/09/22 10:51:33;;;;;;;;;;;;;;;14.11;100.00;94903.09;10518684;28;1902;-75
2023/09/22 10:56:36;;;;;;;;;;;;;;;13.94;100.00;94914.69;10518451;28;1920;-77
2023/09/22 11:01:39;;;;;;;;;;;;;;;13.86;100.00;94907.34;10519872;28;1942;-72
2023/09/22 11:06:41;;;;;;;;;;;;;;;13.90;100.00;94894.81;10520919;28;2026;-74
2023/09/22 11:11:44;;;;;;;;;;;;;;;13.93;100.00;94896.91;10518453;28;2621;-73
2023/09/22 11:16:46;;;;;;;;;;;;;;;14.06;100.00;94901.38;10520723;28;1892;-72
2023/09/22 11:21:48;;;;;;;;;;;;;;;14.21;100.00;94896.59;10514282;28;1864;-71
2023/09/22 11:26:51;;;;;;;;;;;;;;;14.10;100.00;94909.63;10519908;28;1941;-72
2023/09/22 11:31:56;;;;;;;;;;;;;;;14.10;100.00;94906.13;10516588;28;1981;-71
2023/09/22 11:36:59;;;;;;;;;;;;;;;14.11;100.00;94896.91;10520630;28;1989;-71
2023/09/22 11:42:02;;;;;;;;;;;;;;;13.93;100.00;94898.78;10516721;28;4607;-71
2023/09/22 11:47:05;;;;;;;;;;;;;;;13.93;100.00;94902.31;10498727;28;1874;-72
2023/09/22 11:52:07;;;;;;;;;;;;;;;14.05;100.00;94893.56;10520198;28;1976;-72
2023/09/22 11:57:09;;;;;;;;;;;;;;;14.11;100.00;94900.41;10522701;28;2495;-71
2023/09/22 12:02:12;;;;;;;;;;;;;;;14.07;100.00;94897.56;10518263;28;1958;-71
2023/09/22 12:07:15;;;;;;;;;;;;;;;14.11;100.00;94902.31;10518615;28;2013;-74
2023/09/22 12:12:17;;;;;;;;;;;;;;;14.06;100.00;94914.88;10519964;28;2020;-73
2023/09/22 12:17:21;;;;;;;;;;;;;;;14.01;100.00;94919.63;10521481;28;1769;-73
2023/09/22 12:22:23;;;;;;;;;;;;;;;13.78;100.00;94916.25;10519483;28;1953;-72
2023/09/22 12:27:26;;;;;;;;;;;;;;;13.77;100.00;94914.66;10517937;28;1881;-73
2023/09/22 12:32:28;;;;;;;;;;;;;;;13.72;100.00;94895.91;10526071;28;1980;-72
2023/09/22 12:37:31;;;;;;;;;;;;;;;13.88;100.00;94907.06;10526072;28;2001;-70
2023/09/22 12:42:34;;;;;;;;;;;;;;;14.22;100.00;94909.00;10524646;28;4659;-72
2023/09/22 12:47:36;;;;;;;;;;;;;;;14.36;100.00;94909.63;10525702;28;1987;-71
2023/09/22 12:52:39;;;;;;;;;;;;;;;14.23;100.00;94894.38;10522861;28;1922;-72
2023/09/22 12:57:41;;;;;;;;;;;;;;;14.09;100.00;94888.31;10523212;28;1969;-73
2023/09/22 13:02:44;;;;;;;;;;;;;;;14.09;100.00;94882.91;10526038;28;1864;-73
2023/09/22 13:07:47;;;;;;;;;;;;;;;14.19;100.00;94888.03;10525944;28;2181;-71
2023/09/22 13:12:49;;;;;;;;;;;;;;;13.99;100.00;94890.22;10523668;28;2011;-72
2023/09/22 13:17:51;;;;;;;;;;;;;;;13.79;100.00;94891.63;10524327;28;1834;-72
2023/09/22 13:22:54;;;;;;;;;;;;;;;13.72;100.00;94890.50;10520386;28;1861;-73
2023/09/22 13:27:58;;;;;;;;;;;;;;;13.77;100.00;94893.06;10524521;28;2463;-74
2023/09/22 13:33:00;;;;;;;;;;;;;;;13.76;100.00;94891.47;10527140;28;1989;-74
2023/09/22 13:38:03;;;;;;;;;;;;;;;13.56;100.00;94881.25;10525140;28;1942;-73
2023/09/22 13:43:07;;;;;;;;;;;;;;;13.62;100.00;94888.91;10522649;28;4609;-75
2023/09/22 13:48:09;;;;;;;;;;;;;;;13.57;100.00;94888.25;10522740;28;1823;-73
2023/09/22 13:53:12;;;;;;;;;;;;;;;13.60;100.00;94876.81;10519874;28;1926;-73
2023/09/22 13:58:14;;;;;;;;;;;;;;;13.48;100.00;94862.00;10522562;28;2001;-73
2023/09/22 14:03:17;;;;;;;;;;;;;;;13.48;100.00;94869.31;10519124;28;2003;-73
2023/09/22 14:08:21;;;;;;;;;;;;;;;13.38;100.00;94859.59;10528851;28;1804;-72
2023/09/22 14:13:23;;;;;;;;;;;;;;;13.17;100.00;94851.25;10517711;28;2796;-72
2023/09/22 14:18:26;;;;;;;;;;;;;;;13.20;100.00;94850.66;10523580;28;1900;-76
2023/09/22 14:23:29;;;;;;;;;;;;;;;13.16;100.00;94867.72;10524490;28;1841;-74
2023/09/22 14:28:34;;;;;;;;;;;;;;;13.10;100.00;94874.38;10524335;28;1866;-75
2023/09/22 14:33:37;;;;;;;;;;;;;;;12.99;100.00;94888.16;10528731;28;2094;-82
2023/09/22 14:38:39;;;;;;;;;;;;;;;12.89;100.00;94906.50;10522613;28;1833;-78
2023/09/22 14:43:41;;;;;;;;;;;;;;;12.71;100.00;94927.16;10521048;28;4857;-80
2023/09/22 14:48:44;;;;;;;;;;;;;;;12.65;100.00;94914.91;10500632;28;1998;-82
2023/09/22 14:53:47;;;;;;;;;;;;;;;12.62;100.00;94929.00;10523686;28;1977;-79
2023/09/22 14:58:49;;;;;;;;;;;;;;;12.62;100.00;94940.59;10522927;28;1872;-79
2023/09/22 15:03:52;;;;;;;;;;;;;;;12.70;100.00;94963.31;10522280;28;1909;-75
2023/09/22 15:08:54;;;;;;;;;;;;;;;12.65;100.00;94931.09;10522696;28;2003;-76
2023/09/22 15:13:57;;;;;;;;;;;;;;;12.62;100.00;94956.78;10521960;28;2550;-77
2023/09/22 15:19:00;;;;;;;;;;;;;;;12.64;100.00;94949.16;10518582;28;1898;-77
2023/09/22 15:24:03;;;;;;;;;;;;;;;12.60;100.00;94958.97;10520555;28;1848;-77
2023/09/22 15:29:05;;;;;;;;;;;;;;;12.47;100.00;94948.22;10517168;28;1944;-69
2023/09/22 15:34:08;;;;;;;;;;;;;;;12.40;100.00;94949.44;10513997;28;1894;-78
2023/09/22 15:39:10;;;;;;;;;;;;;;;12.37;100.00;94944.69;10515884;28;1888;-73
2023/09/22 15:44:13;;;;;;;;;;;;;;;12.35;100.00;94940.72;10516344;28;1944;-73
2023/09/22 15:49:15;;;;;;;;;;;;;;;12.25;100.00;94932.84;10514245;28;1877;-75
2023/09/22 15:54:18;;;;;;;;;;;;;;;12.18;100.00;94942.13;10519981;28;1938;-75
2023/09/22 15:59:20;;;;;;;;;;;;;;;12.14;100.00;94945.72;10517736;28;2485;-78
2023/09/22 16:04:22;;;;;;;;;;;;;;;12.21;100.00;94934.53;10517352;28;2008;-79
2023/09/22 16:09:27;;;;;;;;;;;;;;;12.20;100.00;94949.91;10530338;28;2099;-79
2023/09/22 16:14:29;;;;;;;;;;;;;;;12.22;100.00;94934.25;10529772;28;1937;-79
2023/09/22 16:19:32;;;;;;;;;;;;;;;12.12;100.00;94915.63;10530566;28;1900;-77
2023/09/22 16:24:35;;;;;;;;;;;;;;;12.04;100.00;94910.97;10527129;28;1903;-77
2023/09/22 16:29:37;;;;;;;;;;;;;;;11.97;100.00;94897.91;10521802;28;1925;-75
2023/09/22 16:34:39;;;;;;;;;;;;;;;11.93;100.00;94912.28;10520011;28;1977;-79
2023/09/22 16:39:42;;;;;;;;;;;;;;;11.87;100.00;94955.47;10521977;28;1833;-75
2023/09/22 16:44:45;;;;;;;;;;;;;;;11.83;100.00;94962.56;10518360;28;4973;-77
2023/09/22 16:49:47;;;;;;;;;;;;;;;11.88;100.00;94969.72;10525140;28;2245;-79
2023/09/22 16:54:50;;;;;;;;;;;;;;;11.88;100.00;94954.38;10523566;28;1984;-78
2023/09/22 16:59:52;;;;;;;;;;;;;;;11.82;100.00;94971.72;10524441;28;1814;-80
2023/09/22 17:04:54;;;;;;;;;;;;;;;11.75;100.00;94995.53;10525138;28;1901;-79
2023/09/22 17:09:57;;;;;;;;;;;;;;;11.62;100.00;94993.63;10524111;28;2079;-78
2023/09/22 17:14:59;;;;;;;;;;;;;;;11.65;100.00;94998.44;10523314;28;2015;-77
2023/09/22 17:20:02;;;;;;;;;;;;;;;11.68;100.00;95003.22;10518403;28;1905;-76
2023/09/22 17:25:05;;;;;;;;;;;;;;;11.64;100.00;95003.03;10519938;28;1900;-76
2023/09/22 17:30:08;;;;;;;;;;;;;;;11.63;100.00;95008.69;10522427;28;2686;-76
2023/09/22 17:35:11;;;;;;;;;;;;;;;11.64;100.00;95002.19;10524570;28;1997;-78
2023/09/22 17:40:14;;;;;;;;;;;;;;;11.66;100.00;95000.03;10528190;28;4634;-75
2023/09/22 17:45:16;;;;;;;;;;;;;;;11.67;100.00;95008.91;10518713;28;1988;-74
2023/09/22 17:50:19;;;;;;;;;;;;;;;11.64;100.00;94986.88;10516776;28;1908;-73
2023/09/22 17:55:21;;;;;;;;;;;;;;;11.69;100.00;94967.13;10523671;28;1989;-76
2023/09/22 18:00:25;;;;;;;;;;;;;;;11.78;100.00;94978.00;10524979;28;1898;-76
2023/09/22 18:05:27;;;;;;;;;;;;;;;11.80;100.00;94973.09;10526477;28;1958;-76
2023/09/22 18:10:30;;;;;;;;;;;;;;;11.70;100.00;94957.94;10527327;28;1902;-77
2023/09/22 18:15:33;;;;;;;;;;;;;;;11.74;100.00;94980.47;10529475;28;2719;-76
2023/09/22 18:20:35;;;;;;;;;;;;;;;11.68;100.00;94984.38;10525544;28;1835;-77
2023/09/22 18:25:38;;;;;;;;;;;;;;;11.78;100.00;94969.91;10524711;28;1828;-76
2023/09/22 18:30:41;;;;;;;;;;;;;;;11.77;100.00;94963.75;10525777;28;1837;-79
2023/09/22 18:35:43;;;;;;;;;;;;;;;11.79;100.00;94969.63;10527073;28;1926;-77
2023/09/22 18:40:46;;;;;;;;;;;;;;;11.82;100.00;94969.03;10519035;28;4581;-78
2023/09/22 18:45:48;;;;;;;;;;;;;;;11.86;100.00;94978.13;10524011;28;1894;-82
2023/09/22 18:50:51;;;;;;;;;;;;;;;11.89;100.00;94960.53;10524820;28;2161;-78
2023/09/22 18:55:54;;;;;;;;;;;;;;;11.86;100.00;94978.13;10516660;28;2035;-76
2023/09/22 19:00:57;;;;;;;;;;;;;;;11.81;100.00;94986.28;10525763;28;1687;-83
2023/09/22 19:06:02;;;;;;;;;;;;;;;11.81;100.00;94980.91;10526245;28;1932;-78
2023/09/22 19:11:04;;;;;;;;;;;;;;;11.87;100.00;94985.09;10503878;28;1892;-78
2023/09/22 19:16:06;;;;;;;;;;;;;;;11.85;100.00;94984.59;10519325;28;2467;-79
2023/09/22 19:21:09;;;;;;;;;;;;;;;11.82;100.00;94982.50;10521908;28;1867;-80
2023/09/22 19:26:14;;;;;;;;;;;;;;;11.82;100.00;94995.97;10523584;28;1808;-77
2023/09/22 19:31:17;;;;;;;;;;;;;;;11.88;100.00;94991.28;10520167;28;1934;-76
2023/09/22 19:36:21;;;;;;;;;;;;;;;11.84;100.00;95006.44;10521110;28;1922;-78
2023/09/22 19:41:23;;;;;;;;;;;;;;;11.84;100.00;95023.41;10525427;28;4522;-85
2023/09/22 19:46:27;;;;;;;;;;;;;;;11.80;100.00;95038.53;10533532;28;1850;-82
2023/09/22 19:51:30;;;;;;;;;;;;;;;11.85;100.00;95035.75;10535207;28;1816;-80
2023/09/22 19:56:32;;;;;;;;;;;;;;;11.81;100.00;95042.03;10530439;28;2019;-80
2023/09/22 20:01:35;;;;;;;;;;;;;;;11.82;100.00;95054.41;10535292;28;2928;-82
2023/09/22 20:06:38;;;;;;;;;;;;;;;11.78;100.00;95038.03;10530301;28;1833;-78
2023/09/22 20:11:41;;;;;;;;;;;;;;;11.69;100.00;95037.09;10530324;28;1841;-77
2023/09/22 20:16:43;;;;;;;;;;;;;;;11.75;100.00;95041.31;10527572;28;1914;-77
2023/09/22 20:21:46;;;;;;;;;;;;;;;11.74;100.00;95034.31;10528659;28;1800;-77
2023/09/22 20:26:48;;;;;;;;;;;;;;;11.73;100.00;95035.44;10526488;28;1985;-78
2023/09/22 20:31:51;;;;;;;;;;;;;;;11.76;100.00;95029.44;10524896;28;1816;-80
2023/09/22 20:36:54;;;;;;;;;;;;;;;11.74;100.00;95037.03;10527546;28;1976;-78
2023/09/22 20:41:58;;;;;;;;;;;;;;;11.73;100.00;95038.13;10526086;28;4593;-79
2023/09/22 20:47:01;;;;;;;;;;;;;;;11.75;100.00;95046.69;10511637;28;2686;-79
2023/09/22 20:52:03;;;;;;;;;;;;;;;11.71;100.00;95045.72;10507518;28;1921;-79
2023/09/22 20:57:06;;;;;;;;;;;;;;;11.72;100.00;95044.59;10533141;28;1833;-79
2023/09/22 21:02:10;;;;;;;;;;;;;;;11.69;100.00;95050.56;10528730;28;1983;-78
2023/09/22 21:07:13;;;;;;;;;;;;;;;11.69;100.00;95047.88;10523672;28;1879;-80
2023/09/22 21:12:16;;;;;;;;;;;;;;;11.70;100.00;95046.78;10528222;28;2122;-79
2023/09/22 21:17:18;;;;;;;;;;;;;;;11.65;100.00;95041.50;10523722;28;2201;-78
2023/09/22 21:22:21;;;;;;;;;;;;;;;11.69;100.00;95041.69;10526115;28;1801;-80
2023/09/22 21:27:23;;;;;;;;;;;;;;;11.72;100.00;95047.28;10533303;28;2166;-80
2023/09/22 21:32:26;;;;;;;;;;;;;;;11.73;100.00;95058.88;10543241;28;2475;-82
2023/09/22 21:37:28;;;;;;;;;;;;;;;11.74;100.00;95053.19;10555299;28;2034;-80
2023/09/22 21:42:32;;;;;;;;;;;;;;;11.70;100.00;95065.63;10528683;28;4510;-79
2023/09/22 21:47:35;;;;;;;;;;;;;;;11.75;100.00;95072.81;10526268;28;1943;-78
2023/09/22 21:52:37;;;;;;;;;;;;;;;11.74;100.00;95096.25;10526297;28;1959;-77
2023/09/22 21:57:40;;;;;;;;;;;;;;;11.77;100.00;95102.94;10528526;28;1888;-78
2023/09/22 22:02:43;;;;;;;;;;;;;;;11.79;100.00;95112.31;10525204;28;1883;-78
2023/09/22 22:07:45;;;;;;;;;;;;;;;11.73;100.00;95110.03;10525660;28;1805;-79
2023/09/22 22:12:48;;;;;;;;;;;;;;;11.57;100.00;95117.53;10526782;28;2030;-79
2023/09/22 22:17:50;;;;;;;;;;;;;;;11.53;100.00;95105.78;10525968;28;2521;-80
2023/09/22 22:22:55;;;;;;;;;;;;;;;11.53;100.00;95114.66;10526451;28;1894;-77
2023/09/22 22:27:58;;;;;;;;;;;;;;;11.40;100.00;95134.25;10525451;28;2003;-78
2023/09/22 22:33:02;;;;;;;;;;;;;;;11.28;100.00;95133.91;10526057;28;1917;-78
2023/09/22 22:38:06;;;;;;;;;;;;;;;11.29;100.00;95140.91;10521226;28;1877;-77
2023/09/22 22:43:09;;;;;;;;;;;;;;;11.29;100.00;95155.13;10522609;28;4553;-80
2023/09/22 22:48:12;;;;;;;;;;;;;;;11.42;100.00;95147.41;10521658;28;1835;-79
2023/09/22 22:53:16;;;;;;;;;;;;;;;11.51;100.00;95148.34;10521752;28;1981;-79
2023/09/22 22:58:18;;;;;;;;;;;;;;;11.45;100.00;95160.28;10522730;28;2038;-78
2023/09/22 23:03:24;;;;;;;;;;;;;;;11.38;100.00;95158.75;10521247;28;2794;-78
2023/09/22 23:08:27;;;;;;;;;;;;;;;11.30;100.00;95169.41;10523845;28;1801;-78
2023/09/22 23:13:31;;;;;;;;;;;;;;;11.25;100.00;95162.19;10517376;28;1991;-76
2023/09/22 23:18:33;;;;;;;;;;;;;;;11.31;100.00;95160.22;10519068;28;2023;-78
2023/09/22 23:23:36;;;;;;;;;;;;;;;11.32;100.00;95161.81;10519455;28;2039;-79
2023/09/22 23:28:39;;;;;;;;;;;;;;;11.28;100.00;95153.53;10517276;28;2002;-79
2023/09/22 23:33:42;;;;;;;;;;;;;;;11.29;100.00;95160.53;10521495;28;1976;-79
2023/09/22 23:38:45;;;;;;;;;;;;;;;11.30;100.00;95180.94;10525947;28;1840;-78
2023/09/22 23:43:48;;;;;;;;;;;;;;;11.24;100.00;95187.50;10522031;28;1944;-78
2023/09/22 23:48:50;;;;;;;;;;;;;;;11.25;100.00;95183.72;10516324;28;2587;-79
2023/09/22 23:53:53;;;;;;;;;;;;;;;11.21;100.00;95190.00;10521785;28;1981;-80
2023/09/22 23:58:55;;;;;;;;;;;;;;;11.14;100.00;95193.03;10524205;28;1903;-80
